KCRE

Grand Strand Airport

North Myrtle Beach, South Carolina, USA
METAR KCRE 170753Z AUTO 00000KT 4SM BR CLR 01/00 A3030 RMK AO1 SLP260 T00060000
Observed Flight Rules
Dec-17 @ 07:53 UTC (23 minutes ago) Marginal Visual Flight Rules
Wind Visibility Clouds Conditions
Calm 4 miles
  • Clear skies
  • Mist
Temperatures Readings
Current 1°C / 34°F
Dewpoint 0°C / 32°F
Humidity 93%
Altimeter 30.3" Hg
Pressure 1026 hPa
Elevation 10
METAR KCRE 170753Z AUTO 00000KT 4SM BR CLR 01/00 A3030 RMK AO1 SLP260 T00060000
Observed Flight Rules
Dec-17 @ 07:53 UTC
(23 minutes ago)
MVFR
Wind Visibility
Calm 4 miles
Clouds
  • Clear skies
Conditions
  • Mist
Temperature Dewpoint
1°C / 34°F 0°C / 32°F
Humidity Altimeter Pressure
93% 30.3" Hg 1026 hPa